Time;durP1;ratioP1;P1;durP2;ratioP2;P2;SDS_P1;SDS_P2;PMS_P1;PMS_P2;Temp;Humidity;BMP_temperature;BMP_pressure;BME280_temperature;BME280_humidity;BME280_pressure;Samples;Min_cycle;Max_cycle;Signal;HPM_P1;HPM_P2
2024/03/14 00:01:28;;;;;;;10.73;6.22;;;;;;;;;;5074708;28;20075;-57
2024/03/14 00:03:57;;;;;;;6.70;5.97;;;;;;;;;;5075069;28;20076;-55
2024/03/14 00:06:23;;;;;;;8.65;5.60;;;;;;;;;;5074613;28;20075;-56
2024/03/14 00:08:51;;;;;;;9.05;5.82;;;;;;;;;;5074785;28;20411;-56
2024/03/14 00:11:18;;;;;;;9.30;6.20;;;;;;;;;;5074720;28;20074;-56
2024/03/14 00:13:45;;;;;;;8.98;6.25;;;;;;;;;;5074861;28;20489;-57
2024/03/14 00:16:12;;;;;;;8.32;5.32;;;;;;;;;;5074377;28;20059;-56
2024/03/14 00:18:39;;;;;;;7.72;5.90;;;;;;;;;;5075013;28;20052;-56
2024/03/14 00:21:09;;;;;;;7.30;5.40;;;;;;;;;;5074646;28;20056;-57
2024/03/14 00:23:36;;;;;;;7.45;5.78;;;;;;;;;;5075107;28;20052;-57
2024/03/14 00:26:03;;;;;;;8.25;5.78;;;;;;;;;;5074371;28;20063;-57
2024/03/14 00:28:31;;;;;;;7.47;5.70;;;;;;;;;;5074683;28;20056;-56
2024/03/14 00:30:59;;;;;;;6.75;5.63;;;;;;;;;;5074427;28;20044;-57
2024/03/14 00:33:26;;;;;;;8.75;6.00;;;;;;;;;;5074530;28;20048;-56
2024/03/14 00:35:53;;;;;;;6.53;5.82;;;;;;;;;;5074720;28;20055;-56
2024/03/14 00:38:20;;;;;;;6.50;5.05;;;;;;;;;;5074548;28;20493;-56
2024/03/14 00:40:47;;;;;;;8.02;5.97;;;;;;;;;;5074242;28;20059;-55
2024/03/14 00:43:14;;;;;;;7.95;5.53;;;;;;;;;;5074706;28;20055;-57
2024/03/14 00:45:41;;;;;;;8.70;6.03;;;;;;;;;;5074403;28;20056;-57
2024/03/14 00:48:08;;;;;;;7.50;5.35;;;;;;;;;;5077924;28;20070;-57
2024/03/14 00:50:36;;;;;;;7.70;5.50;;;;;;;;;;5078454;28;20052;-57
2024/03/14 00:53:03;;;;;;;8.38;5.68;;;;;;;;;;5078517;28;20504;-56
2024/03/14 00:55:30;;;;;;;6.47;5.20;;;;;;;;;;5077936;28;20052;-57
2024/03/14 00:57:57;;;;;;;7.32;5.65;;;;;;;;;;5078028;28;20067;-57
2024/03/14 01:00:24;;;;;;;7.78;5.53;;;;;;;;;;5078055;28;20056;-56
2024/03/14 01:02:51;;;;;;;6.18;5.10;;;;;;;;;;5077611;28;20048;-57
2024/03/14 01:05:18;;;;;;;7.10;4.93;;;;;;;;;;5077603;28;20693;-56
2024/03/14 01:07:45;;;;;;;5.65;4.90;;;;;;;;;;5077703;28;20063;-57
2024/03/14 01:10:13;;;;;;;9.45;5.13;;;;;;;;;;5078100;28;20051;-57
2024/03/14 01:12:40;;;;;;;8.23;4.82;;;;;;;;;;5077411;28;20428;-57
2024/03/14 01:15:07;;;;;;;7.10;4.57;;;;;;;;;;5077839;28;20063;-57
2024/03/14 01:17:34;;;;;;;7.00;4.60;;;;;;;;;;5077536;28;20406;-56
2024/03/14 01:20:02;;;;;;;5.47;4.28;;;;;;;;;;5077667;28;20056;-54
2024/03/14 01:22:29;;;;;;;6.93;4.95;;;;;;;;;;5078063;28;20055;-56
2024/03/14 01:24:56;;;;;;;4.80;4.10;;;;;;;;;;5077411;28;20063;-56
2024/03/14 01:27:23;;;;;;;6.85;4.70;;;;;;;;;;5077537;28;20048;-55
2024/03/14 01:29:50;;;;;;;7.63;4.40;;;;;;;;;;5077498;28;20055;-57
2024/03/14 01:32:17;;;;;;;6.05;4.25;;;;;;;;;;5077355;28;20044;-57
2024/03/14 01:34:44;;;;;;;5.82;4.38;;;;;;;;;;5077367;28;20402;-54
2024/03/14 01:37:11;;;;;;;5.68;4.40;;;;;;;;;;5077022;28;20059;-56
2024/03/14 01:39:38;;;;;;;6.07;4.13;;;;;;;;;;5077217;28;20071;-57
2024/03/14 01:42:05;;;;;;;8.60;5.10;;;;;;;;;;5076820;28;20048;-57
2024/03/14 01:44:38;;;;;;;7.05;5.00;;;;;;;;;;5077122;28;20052;-57
2024/03/14 01:47:05;;;;;;;6.68;4.80;;;;;;;;;;5076549;28;20056;-57
2024/03/14 01:49:32;;;;;;;7.22;5.00;;;;;;;;;;5077149;28;20071;-56
2024/03/14 01:51:59;;;;;;;7.95;4.85;;;;;;;;;;5076909;28;20514;-57
2024/03/14 01:54:26;;;;;;;7.43;5.57;;;;;;;;;;5077008;28;20063;-56
2024/03/14 01:56:58;;;;;;;6.55;4.53;;;;;;;;;;5076451;28;20401;-55
2024/03/14 01:59:28;;;;;;;6.53;5.35;;;;;;;;;;5077892;28;20052;-54
2024/03/14 02:01:55;;;;;;;6.13;4.80;;;;;;;;;;5077158;28;20524;-55
2024/03/14 02:04:23;;;;;;;7.97;5.18;;;;;;;;;;5076910;28;20058;-55
2024/03/14 02:06:51;;;;;;;7.82;5.22;;;;;;;;;;5076302;28;20056;-56
2024/03/14 02:09:22;;;;;;;6.97;5.40;;;;;;;;;;5076921;28;20413;-55
2024/03/14 02:11:49;;;;;;;7.85;5.50;;;;;;;;;;5077259;28;20071;-56
2024/03/14 02:14:16;;;;;;;8.18;6.03;;;;;;;;;;5076731;28;20052;-55
2024/03/14 02:16:43;;;;;;;7.78;5.30;;;;;;;;;;5076353;28;20059;-55
2024/03/14 02:19:11;;;;;;;7.57;4.97;;;;;;;;;;5076412;28;20504;-56
2024/03/14 02:21:39;;;;;;;7.70;5.65;;;;;;;;;;5076512;28;20413;-55
2024/03/14 02:24:06;;;;;;;6.43;5.60;;;;;;;;;;5076077;28;20048;-55
2024/03/14 02:26:39;;;;;;;8.40;5.65;;;;;;;;;;5076161;28;20405;-56
2024/03/14 02:29:06;;;;;;;7.30;6.35;;;;;;;;;;5076282;28;20052;-56
2024/03/14 02:31:33;;;;;;;8.07;5.65;;;;;;;;;;5076049;28;20417;-55
2024/03/14 02:34:00;;;;;;;9.30;5.93;;;;;;;;;;5076192;28;20059;-56
2024/03/14 02:36:26;;;;;;;8.40;5.78;;;;;;;;;;5075976;28;20059;-56
2024/03/14 02:38:54;;;;;;;7.95;6.43;;;;;;;;;;5075743;28;20056;-55
2024/03/14 02:41:20;;;;;;;6.93;5.88;;;;;;;;;;5075626;28;20052;-56
2024/03/14 02:43:47;;;;;;;7.35;6.32;;;;;;;;;;5076025;28;20071;-56
2024/03/14 02:46:14;;;;;;;6.65;5.75;;;;;;;;;;5075413;28;20052;-56
2024/03/14 02:48:41;;;;;;;6.97;5.93;;;;;;;;;;5076148;28;20063;-56
2024/03/14 02:51:10;;;;;;;8.05;6.45;;;;;;;;;;5075755;28;20063;-57
2024/03/14 02:53:37;;;;;;;7.15;5.22;;;;;;;;;;5076202;28;20048;-56
2024/03/14 02:56:04;;;;;;;8.00;6.40;;;;;;;;;;5075675;28;20056;-57
2024/03/14 02:58:31;;;;;;;7.38;5.82;;;;;;;;;;5075687;28;20075;-56
2024/03/14 03:00:59;;;;;;;7.68;6.30;;;;;;;;;;5075628;28;20059;-56
2024/03/14 03:03:25;;;;;;;9.32;6.20;;;;;;;;;;5075309;28;20048;-56
2024/03/14 03:05:52;;;;;;;8.55;5.90;;;;;;;;;;5075504;28;20056;-55
2024/03/14 03:08:19;;;;;;;6.28;5.55;;;;;;;;;;5075166;28;20059;-55
2024/03/14 03:10:46;;;;;;;9.82;6.18;;;;;;;;;;5073374;28;20067;-56
2024/03/14 03:13:14;;;;;;;8.48;5.78;;;;;;;;;;5068549;28;20124;-56
2024/03/14 03:15:41;;;;;;;8.60;5.88;;;;;;;;;;5055486;28;20049;-56
2024/03/14 03:18:08;;;;;;;7.28;6.13;;;;;;;;;;5055750;28;20060;-55
2024/03/14 03:20:35;;;;;;;7.75;5.80;;;;;;;;;;5055606;28;20059;-55
2024/03/14 03:23:08;;;;;;;6.85;5.50;;;;;;;;;;5055024;28;20056;-56
2024/03/14 03:25:34;;;;;;;7.63;5.50;;;;;;;;;;5056423;28;20059;-55
2024/03/14 03:28:02;;;;;;;8.18;5.95;;;;;;;;;;5054862;28;20052;-56
2024/03/14 03:30:28;;;;;;;9.60;5.65;;;;;;;;;;5055018;28;20056;-55
2024/03/14 03:32:55;;;;;;;7.20;5.95;;;;;;;;;;5055287;28;20135;-55
2024/03/14 03:35:21;;;;;;;7.20;5.53;;;;;;;;;;5055540;28;20056;-57
2024/03/14 03:37:47;;;;;;;7.88;6.22;;;;;;;;;;5058063;28;20067;-55
2024/03/14 03:40:21;;;;;;;11.43;7.35;;;;;;;;;;5074930;28;20473;-56
2024/03/14 03:42:47;;;;;;;8.55;6.32;;;;;;;;;;5075958;28;20052;-55
2024/03/14 03:45:14;;;;;;;9.43;5.88;;;;;;;;;;5074877;28;20052;-55
2024/03/14 03:47:40;;;;;;;7.88;6.10;;;;;;;;;;5074452;28;20066;-54
2024/03/14 03:50:09;;;;;;;6.65;5.78;;;;;;;;;;5074853;28;20051;-55
2024/03/14 03:52:35;;;;;;;9.93;6.53;;;;;;;;;;5075328;28;20054;-54
2024/03/14 03:55:04;;;;;;;7.75;5.93;;;;;;;;;;5074748;28;20055;-55
2024/03/14 03:57:30;;;;;;;6.93;5.25;;;;;;;;;;5075179;28;20052;-56
2024/03/14 03:59:58;;;;;;;6.45;5.25;;;;;;;;;;5074986;28;20052;-55
2024/03/14 04:02:26;;;;;;;8.27;5.90;;;;;;;;;;5074776;28;20052;-55
2024/03/14 04:04:57;;;;;;;6.93;5.50;;;;;;;;;;5075382;28;20052;-55
2024/03/14 04:07:26;;;;;;;8.90;5.68;;;;;;;;;;5075283;28;20469;-56
2024/03/14 04:09:54;;;;;;;7.65;5.70;;;;;;;;;;5074452;28;20052;-55
2024/03/14 04:12:20;;;;;;;5.93;5.18;;;;;;;;;;5074575;28;20059;-56
2024/03/14 04:14:47;;;;;;;6.35;5.20;;;;;;;;;;5074558;28;20056;-55
2024/03/14 04:17:14;;;;;;;7.88;5.85;;;;;;;;;;5074529;28;20405;-55
2024/03/14 04:19:45;;;;;;;8.40;5.95;;;;;;;;;;5074912;28;20405;-54
2024/03/14 04:22:14;;;;;;;8.48;6.53;;;;;;;;;;5078994;28;20047;-55
2024/03/14 04:24:41;;;;;;;7.50;5.88;;;;;;;;;;5078442;28;20055;-56
2024/03/14 04:27:08;;;;;;;6.95;5.72;;;;;;;;;;5078529;28;20060;-56
2024/03/14 04:29:35;;;;;;;7.18;5.97;;;;;;;;;;5078733;28;20485;-54
2024/03/14 04:32:02;;;;;;;7.72;5.47;;;;;;;;;;5078015;28;20052;-56
2024/03/14 04:34:29;;;;;;;8.23;6.55;;;;;;;;;;5078535;28;20524;-55
2024/03/14 04:36:56;;;;;;;9.02;6.47;;;;;;;;;;5078502;28;20060;-55
2024/03/14 04:39:23;;;;;;;7.70;6.25;;;;;;;;;;5078335;28;20052;-57
2024/03/14 04:41:52;;;;;;;9.30;7.20;;;;;;;;;;5078256;28;20063;-57
2024/03/14 04:44:19;;;;;;;11.07;7.50;;;;;;;;;;5078395;28;20409;-57
2024/03/14 04:46:46;;;;;;;8.98;7.20;;;;;;;;;;5077901;28;20484;-55
2024/03/14 04:49:13;;;;;;;9.30;7.28;;;;;;;;;;5078182;28;20493;-55
2024/03/14 04:51:40;;;;;;;8.07;7.20;;;;;;;;;;5077838;28;20055;-55
2024/03/14 04:54:07;;;;;;;10.40;8.40;;;;;;;;;;5077983;28;20052;-55
2024/03/14 04:56:34;;;;;;;12.65;8.55;;;;;;;;;;5077484;28;20059;-55
2024/03/14 04:59:01;;;;;;;11.63;8.63;;;;;;;;;;5077586;28;20060;-55
2024/03/14 05:01:29;;;;;;;11.90;9.07;;;;;;;;;;5077517;28;20048;-54
2024/03/14 05:03:56;;;;;;;11.70;9.02;;;;;;;;;;5077762;28;20052;-54
2024/03/14 05:06:23;;;;;;;10.32;8.98;;;;;;;;;;5077563;28;20055;-54
2024/03/14 05:08:50;;;;;;;11.32;9.02;;;;;;;;;;5077770;28;20048;-56
2024/03/14 05:11:17;;;;;;;12.13;8.85;;;;;;;;;;5077412;28;20131;-55
2024/03/14 05:13:45;;;;;;;10.23;9.02;;;;;;;;;;5077893;28;20048;-55
2024/03/14 05:16:12;;;;;;;10.63;8.85;;;;;;;;;;5078013;28;20052;-55
2024/03/14 05:18:39;;;;;;;11.25;9.20;;;;;;;;;;5077886;28;20501;-55
2024/03/14 05:21:10;;;;;;;15.27;9.52;;;;;;;;;;5077320;28;20055;-55
2024/03/14 05:23:36;;;;;;;12.38;9.23;;;;;;;;;;5078140;28;20044;-54
2024/03/14 05:26:04;;;;;;;13.95;9.82;;;;;;;;;;5077264;28;20070;-56
2024/03/14 05:28:31;;;;;;;13.55;9.95;;;;;;;;;;5077663;28;20056;-54
2024/03/14 05:30:57;;;;;;;10.10;8.70;;;;;;;;;;5077275;28;20060;-55
2024/03/14 05:33:24;;;;;;;12.48;9.73;;;;;;;;;;5076413;28;20060;-55
2024/03/14 05:35:51;;;;;;;13.32;10.00;;;;;;;;;;5077028;28;20052;-55
2024/03/14 05:38:18;;;;;;;11.07;9.88;;;;;;;;;;5077448;28;20059;-55
2024/03/14 05:40:45;;;;;;;12.88;10.18;;;;;;;;;;5077071;28;20052;-55
2024/03/14 05:43:12;;;;;;;11.68;9.65;;;;;;;;;;5077018;28;20515;-55
2024/03/14 05:45:39;;;;;;;13.65;9.27;;;;;;;;;;5076739;28;20051;-55
2024/03/14 05:48:09;;;;;;;10.85;9.18;;;;;;;;;;5076938;28;20063;-55
2024/03/14 05:50:35;;;;;;;13.38;10.18;;;;;;;;;;5077592;28;20417;-55
2024/03/14 05:53:02;;;;;;;11.48;8.98;;;;;;;;;;5077041;28;20056;-54
2024/03/14 05:55:29;;;;;;;11.10;9.32;;;;;;;;;;5076783;28;20485;-55
2024/03/14 05:57:56;;;;;;;14.60;9.13;;;;;;;;;;5076404;28;20048;-56
2024/03/14 06:00:23;;;;;;;11.45;8.98;;;;;;;;;;5076523;28;20070;-56
2024/03/14 06:02:50;;;;;;;13.27;10.00;;;;;;;;;;5076388;28;20052;-55
2024/03/14 06:05:18;;;;;;;16.63;9.65;;;;;;;;;;5076790;28;20469;-56
2024/03/14 06:07:45;;;;;;;12.93;9.20;;;;;;;;;;5076594;28;20051;-55
2024/03/14 06:10:12;;;;;;;11.38;10.20;;;;;;;;;;5076467;28;20059;-56
2024/03/14 06:12:39;;;;;;;12.85;10.15;;;;;;;;;;5076409;28;20539;-56
2024/03/14 06:15:07;;;;;;;11.50;9.45;;;;;;;;;;5076369;28;20051;-55
2024/03/14 06:17:34;;;;;;;10.88;8.88;;;;;;;;;;5076742;28;20071;-55
2024/03/14 06:20:01;;;;;;;11.18;9.98;;;;;;;;;;5076168;28;20056;-56
2024/03/14 06:22:28;;;;;;;11.65;9.38;;;;;;;;;;5076225;28;20055;-56
2024/03/14 06:24:54;;;;;;;13.40;8.98;;;;;;;;;;5076040;28;20399;-55
2024/03/14 06:27:21;;;;;;;11.93;9.48;;;;;;;;;;5075609;28;20062;-56
2024/03/14 06:29:50;;;;;;;13.68;9.75;;;;;;;;;;5075438;28;20052;-55
2024/03/14 06:32:17;;;;;;;11.60;9.90;;;;;;;;;;5075815;28;20048;-55
2024/03/14 06:34:44;;;;;;;15.32;9.57;;;;;;;;;;5075961;28;20048;-56
2024/03/14 06:37:11;;;;;;;11.65;8.38;;;;;;;;;;5075975;28;20473;-56
2024/03/14 06:39:40;;;;;;;12.88;9.48;;;;;;;;;;5075837;28;20052;-56
2024/03/14 06:42:07;;;;;;;13.45;8.40;;;;;;;;;;5075765;28;20068;-56
2024/03/14 06:44:34;;;;;;;12.15;9.18;;;;;;;;;;5075392;28;20063;-55
2024/03/14 06:47:01;;;;;;;11.13;8.68;;;;;;;;;;5075207;28;20064;-57
2024/03/14 06:49:28;;;;;;;11.68;7.35;;;;;;;;;;5075383;28;20048;-55
2024/03/14 06:51:56;;;;;;;10.85;8.43;;;;;;;;;;5075604;28;20063;-56
2024/03/14 06:54:23;;;;;;;10.35;8.82;;;;;;;;;;5075340;28;20410;-56
2024/03/14 06:56:53;;;;;;;10.07;7.40;;;;;;;;;;5075373;28;20056;-57
2024/03/14 06:59:20;;;;;;;8.60;7.18;;;;;;;;;;5075813;28;20056;-56
2024/03/14 07:01:46;;;;;;;10.85;7.78;;;;;;;;;;5075099;28;20052;-56
2024/03/14 07:04:14;;;;;;;8.73;7.15;;;;;;;;;;5075458;28;20123;-57
2024/03/14 07:06:42;;;;;;;11.10;7.00;;;;;;;;;;5074858;28;20135;-56
2024/03/14 07:09:09;;;;;;;11.20;7.95;;;;;;;;;;5075428;28;20048;-57
2024/03/14 07:11:36;;;;;;;9.73;7.25;;;;;;;;;;5074820;28;20056;-56
2024/03/14 07:14:03;;;;;;;9.63;7.38;;;;;;;;;;5075141;28;20105;-56
2024/03/14 07:16:30;;;;;;;9.80;6.45;;;;;;;;;;5074717;28;20413;-57
2024/03/14 07:18:57;;;;;;;8.90;6.32;;;;;;;;;;5074760;28;20052;-56
2024/03/14 07:21:24;;;;;;;8.63;6.60;;;;;;;;;;5075142;28;20059;-56
2024/03/14 07:23:53;;;;;;;8.40;5.88;;;;;;;;;;5075228;28;20052;-57
2024/03/14 07:26:22;;;;;;;7.73;5.90;;;;;;;;;;5075241;28;20048;-57
2024/03/14 07:28:49;;;;;;;;;;;;;;;;;;5075798;28;20056;-57
2024/03/14 07:31:16;;;;;;;7.70;6.22;;;;;;;;;;5093079;28;19920;-56
2024/03/14 07:33:45;;;;;;;6.07;5.47;;;;;;;;;;5075081;28;20063;-56
2024/03/14 07:36:15;;;;;;;7.82;5.82;;;;;;;;;;5075203;28;20048;-57
2024/03/14 07:38:43;;;;;;;6.57;5.97;;;;;;;;;;5075259;28;20067;-57
2024/03/14 07:41:11;;;;;;;5.70;5.03;;;;;;;;;;5074890;28;20054;-57
2024/03/14 07:43:38;;;;;;;6.32;5.72;;;;;;;;;;5074904;28;20504;-57
2024/03/14 07:46:05;;;;;;;7.40;6.13;;;;;;;;;;5074184;28;20059;-56
2024/03/14 07:48:32;;;;;;;6.88;6.18;;;;;;;;;;5074201;28;20048;-57
2024/03/14 07:51:01;;;;;;;6.07;5.47;;;;;;;;;;5074510;28;20052;-57
2024/03/14 07:53:29;;;;;;;;;;;;;;;;;;5075715;28;20048;-55
2024/03/14 07:55:56;;;;;;;7.18;5.78;;;;;;;;;;5091942;28;19920;-56
2024/03/14 07:58:23;;;;;;;7.47;5.40;;;;;;;;;;5074750;28;20056;-56
2024/03/14 08:00:50;;;;;;;6.43;5.75;;;;;;;;;;5074201;28;20052;-56
2024/03/14 08:03:17;;;;;;;5.80;5.22;;;;;;;;;;5074486;28;20052;-56
2024/03/14 08:05:50;;;;;;;6.88;5.45;;;;;;;;;;5074267;28;20052;-56
2024/03/14 08:08:17;;;;;;;5.93;5.32;;;;;;;;;;5075036;28;20052;-56
2024/03/14 08:10:45;;;;;;;6.82;5.85;;;;;;;;;;5074133;28;20048;-56
2024/03/14 08:13:17;;;;;;;6.00;5.40;;;;;;;;;;5074434;28;20055;-56
2024/03/14 08:15:52;;;;;;;6.38;5.68;;;;;;;;;;5074886;28;20059;-55
2024/03/14 08:18:20;;;;;;;5.50;4.97;;;;;;;;;;5075536;28;20052;-55
2024/03/14 08:20:47;;;;;;;7.05;5.50;;;;;;;;;;5074486;28;20075;-56
2024/03/14 08:23:15;;;;;;;6.00;5.40;;;;;;;;;;5074360;28;20056;-55
2024/03/14 08:25:42;;;;;;;6.28;5.68;;;;;;;;;;5074141;28;20401;-55
2024/03/14 08:28:09;;;;;;;8.32;5.35;;;;;;;;;;5074416;28;20052;-55
2024/03/14 08:30:37;;;;;;;7.32;5.40;;;;;;;;;;5073708;28;20052;-56
2024/03/14 08:33:04;;;;;;;5.78;5.15;;;;;;;;;;5073965;28;20063;-56
2024/03/14 08:35:32;;;;;;;6.32;5.45;;;;;;;;;;5074341;28;20052;-57
2024/03/14 08:37:59;;;;;;;5.85;5.22;;;;;;;;;;5074295;28;20508;-56
2024/03/14 08:40:26;;;;;;;6.15;4.35;;;;;;;;;;5073797;28;20079;-56
2024/03/14 08:42:53;;;;;;;5.38;4.82;;;;;;;;;;5073834;28;20060;-57
2024/03/14 08:45:20;;;;;;;4.32;3.92;;;;;;;;;;5074267;28;20068;-56
2024/03/14 08:47:47;;;;;;;5.82;4.80;;;;;;;;;;5073810;28;20067;-57
2024/03/14 08:50:15;;;;;;;5.40;4.65;;;;;;;;;;5074059;28;20389;-57
2024/03/14 08:52:41;;;;;;;5.82;5.30;;;;;;;;;;5074043;28;20055;-56
2024/03/14 08:55:23;;;;;;;5.30;4.80;;;;;;;;;;5074080;28;20048;-57
2024/03/14 08:57:51;;;;;;;5.60;5.10;;;;;;;;;;5076014;28;20052;-56
2024/03/14 09:00:21;;;;;;;5.55;4.63;;;;;;;;;;5073852;28;20059;-57
2024/03/14 09:02:48;;;;;;;5.63;5.03;;;;;;;;;;5074260;28;20508;-56
2024/03/14 09:05:16;;;;;;;5.53;4.60;;;;;;;;;;5073822;28;20048;-56
2024/03/14 09:07:43;;;;;;;5.38;4.50;;;;;;;;;;5075294;28;20390;-56
2024/03/14 09:10:16;;;;;;;5.78;4.55;;;;;;;;;;5077256;28;20055;-55
2024/03/14 09:12:43;;;;;;;4.63;4.13;;;;;;;;;;5078243;28;20056;-56
2024/03/14 09:15:11;;;;;;;5.00;4.35;;;;;;;;;;5077287;28;20048;-55
2024/03/14 09:17:38;;;;;;;4.50;3.72;;;;;;;;;;5077444;28;20055;-56
2024/03/14 09:20:09;;;;;;;6.15;3.90;;;;;;;;;;5077537;28;20055;-56
2024/03/14 09:22:36;;;;;;;5.15;3.90;;;;;;;;;;5077998;28;20052;-56
2024/03/14 09:25:03;;;;;;;5.95;4.22;;;;;;;;;;5077125;28;20159;-56
2024/03/14 09:27:32;;;;;;;5.18;4.18;;;;;;;;;;5077042;28;20063;-56
2024/03/14 09:29:59;;;;;;;4.20;3.53;;;;;;;;;;5077614;28;20056;-56
2024/03/14 09:32:29;;;;;;;4.85;3.80;;;;;;;;;;5077191;28;20607;-56
2024/03/14 09:34:58;;;;;;;4.95;3.78;;;;;;;;;;5077692;28;20052;-57
2024/03/14 09:37:25;;;;;;;4.72;3.60;;;;;;;;;;5077106;28;20516;-57
2024/03/14 09:39:54;;;;;;;3.80;3.40;;;;;;;;;;5056657;28;20055;-57
2024/03/14 09:42:21;;;;;;;;;;;;;;;;;;5057756;28;20409;-57
2024/03/14 09:44:48;;;;;;;5.55;3.63;;;;;;;;;;5074587;28;19920;-56
2024/03/14 09:47:15;;;;;;;3.92;3.55;;;;;;;;;;5056594;28;20075;-56
2024/03/14 09:49:43;;;;;;;3.42;3.13;;;;;;;;;;5057268;28;20056;-57
2024/03/14 09:52:10;;;;;;;3.90;3.50;;;;;;;;;;5056792;28;20053;-57
2024/03/14 09:54:38;;;;;;;4.68;3.63;;;;;;;;;;5056817;28;20052;-56
2024/03/14 09:57:05;;;;;;;5.22;3.55;;;;;;;;;;5056851;28;20057;-56
2024/03/14 09:59:32;;;;;;;4.25;3.85;;;;;;;;;;5056702;28;20060;-56
2024/03/14 10:01:59;;;;;;;3.95;3.60;;;;;;;;;;5056547;28;20410;-56
2024/03/14 10:04:28;;;;;;;4.97;3.65;;;;;;;;;;5056414;28;20056;-55
2024/03/14 10:06:57;;;;;;;4.45;3.58;;;;;;;;;;5056635;28;20202;-56
2024/03/14 10:09:23;;;;;;;;;;;;;;;;;;5057696;28;20406;-56
2024/03/14 10:11:51;;;;;;;4.60;3.38;;;;;;;;;;5074049;28;19928;-56
2024/03/14 10:14:21;;;;;;;4.03;3.38;;;;;;;;;;5056558;28;20064;-56
2024/03/14 10:16:49;;;;;;;5.75;3.97;;;;;;;;;;5056936;28;20421;-56
2024/03/14 10:19:16;;;;;;;4.85;3.08;;;;;;;;;;5056026;28;20052;-55
2024/03/14 10:21:43;;;;;;;4.45;3.63;;;;;;;;;;5055959;28;20409;-56
2024/03/14 10:24:11;;;;;;;4.32;3.20;;;;;;;;;;5056350;28;20502;-56
2024/03/14 10:26:39;;;;;;;5.28;3.60;;;;;;;;;;5056222;28;20055;-56
2024/03/14 10:29:09;;;;;;;4.38;3.22;;;;;;;;;;5056166;28;20052;-56
2024/03/14 10:31:36;;;;;;;3.50;3.20;;;;;;;;;;5055885;28;20063;-57
2024/03/14 10:34:05;;;;;;;4.25;2.85;;;;;;;;;;5056201;28;20486;-56
2024/03/14 10:36:31;;;;;;;6.13;2.95;;;;;;;;;;5056278;28;20052;-56
2024/03/14 10:38:59;;;;;;;3.65;2.90;;;;;;;;;;5068563;28;20051;-56
2024/03/14 10:41:27;;;;;;;4.85;3.05;;;;;;;;;;5075534;28;20051;-57
2024/03/14 10:43:55;;;;;;;3.97;2.80;;;;;;;;;;5075552;28;20048;-57
2024/03/14 10:46:24;;;;;;;4.45;3.40;;;;;;;;;;5075072;28;20048;-56
2024/03/14 10:48:50;;;;;;;3.35;2.67;;;;;;;;;;5075875;28;20402;-56
2024/03/14 10:51:17;;;;;;;3.47;2.60;;;;;;;;;;5075027;28;20047;-56
2024/03/14 10:53:45;;;;;;;4.68;2.92;;;;;;;;;;5075466;28;20059;-56
2024/03/14 10:56:13;;;;;;;3.65;2.83;;;;;;;;;;5075422;28;20051;-56
2024/03/14 10:58:41;;;;;;;3.05;2.60;;;;;;;;;;5075109;28;20052;-56
2024/03/14 11:01:10;;;;;;;3.13;2.65;;;;;;;;;;5075643;28;20060;-57
2024/03/14 11:03:38;;;;;;;3.05;2.70;;;;;;;;;;5075693;28;20043;-56
2024/03/14 11:06:05;;;;;;;4.22;2.60;;;;;;;;;;5075039;28;20060;-56
2024/03/14 11:08:32;;;;;;;3.60;2.70;;;;;;;;;;5074935;28;20051;-57
2024/03/14 11:10:59;;;;;;;2.95;2.35;;;;;;;;;;5075387;28;20056;-56
2024/03/14 11:13:26;;;;;;;4.10;2.22;;;;;;;;;;5074971;28;20048;-56
2024/03/14 11:15:54;;;;;;;3.80;2.90;;;;;;;;;;5074598;28;20055;-57
2024/03/14 11:18:22;;;;;;;4.03;2.70;;;;;;;;;;5075539;28;20056;-56
2024/03/14 11:20:49;;;;;;;3.60;2.47;;;;;;;;;;5075047;28;20052;-57
2024/03/14 11:23:16;;;;;;;2.80;2.50;;;;;;;;;;5075153;28;20055;-56
2024/03/14 11:25:43;;;;;;;3.17;2.70;;;;;;;;;;5074671;28;20056;-56
2024/03/14 11:28:12;;;;;;;5.22;2.72;;;;;;;;;;5075014;28;20386;-56
2024/03/14 11:30:39;;;;;;;5.40;3.35;;;;;;;;;;5074528;28;20507;-57
2024/03/14 11:33:09;;;;;;;6.28;2.95;;;;;;;;;;5075086;28;20056;-56
2024/03/14 11:35:38;;;;;;;6.00;2.60;;;;;;;;;;5075088;28;20052;-56
2024/03/14 11:38:04;;;;;;;;;;;;;;;;;;5075516;28;20052;-56
2024/03/14 11:40:32;;;;;;;3.03;2.47;;;;;;;;;;5093112;28;19927;-56
2024/03/14 11:43:00;;;;;;;5.00;2.42;;;;;;;;;;5074680;28;20055;-57
2024/03/14 11:45:29;;;;;;;3.70;2.35;;;;;;;;;;5074203;28;20052;-56
2024/03/14 11:47:57;;;;;;;3.35;2.40;;;;;;;;;;5074676;28;20075;-57
2024/03/14 11:50:25;;;;;;;3.47;2.63;;;;;;;;;;5058081;28;20067;-57
2024/03/14 11:52:53;;;;;;;2.70;2.15;;;;;;;;;;5074571;28;20056;-56
2024/03/14 11:55:20;;;;;;;2.75;1.88;;;;;;;;;;5075130;28;20051;-57
2024/03/14 11:57:48;;;;;;;4.53;2.38;;;;;;;;;;5074640;28;20370;-57
2024/03/14 12:00:20;;;;;;;4.50;2.80;;;;;;;;;;5074816;28;20052;-56
2024/03/14 12:02:49;;;;;;;2.80;1.98;;;;;;;;;;5074758;28;20048;-56
2024/03/14 12:05:23;;;;;;;2.97;2.10;;;;;;;;;;5074641;28;20059;-57
2024/03/14 12:07:52;;;;;;;3.72;2.20;;;;;;;;;;5074900;28;20048;-56
2024/03/14 12:10:19;;;;;;;3.83;2.00;;;;;;;;;;5074301;28;20055;-57
2024/03/14 12:12:46;;;;;;;2.55;1.77;;;;;;;;;;5074348;28;20079;-57
2024/03/14 12:15:14;;;;;;;3.25;2.50;;;;;;;;;;5074345;28;20059;-57
2024/03/14 12:17:41;;;;;;;4.28;2.60;;;;;;;;;;5074718;28;20059;-57
2024/03/14 12:20:10;;;;;;;3.30;1.92;;;;;;;;;;5073988;28;20059;-57
2024/03/14 12:22:41;;;;;;;4.07;2.40;;;;;;;;;;5074794;28;20060;-57
2024/03/14 12:25:08;;;;;;;3.08;2.08;;;;;;;;;;5074067;28;20409;-57
2024/03/14 12:27:38;;;;;;;5.25;2.20;;;;;;;;;;5074345;28;20044;-57
2024/03/14 12:30:05;;;;;;;3.90;2.13;;;;;;;;;;5074764;28;20056;-58
2024/03/14 12:32:33;;;;;;;3.58;2.00;;;;;;;;;;5074706;28;20378;-57
2024/03/14 12:35:01;;;;;;;3.15;2.15;;;;;;;;;;5073964;28;20052;-57
2024/03/14 12:37:28;;;;;;;4.28;2.30;;;;;;;;;;5073890;28;20071;-58
2024/03/14 12:39:55;;;;;;;3.75;2.20;;;;;;;;;;5074265;28;20047;-57
2024/03/14 12:42:22;;;;;;;4.40;1.98;;;;;;;;;;5076979;28;20048;-58
2024/03/14 12:44:49;;;;;;;2.45;1.77;;;;;;;;;;5078366;28;20056;-57
2024/03/14 12:47:16;;;;;;;3.40;1.83;;;;;;;;;;5077620;28;20065;-58
2024/03/14 12:49:42;;;;;;;3.75;1.88;;;;;;;;;;5078247;28;20409;-58
2024/03/14 12:52:11;;;;;;;2.70;1.77;;;;;;;;;;5077812;28;20054;-57
2024/03/14 12:54:38;;;;;;;2.47;1.60;;;;;;;;;;5077627;28;20082;-58
2024/03/14 12:57:05;;;;;;;3.10;1.90;;;;;;;;;;5077910;28;20059;-58
2024/03/14 12:59:32;;;;;;;2.65;1.83;;;;;;;;;;5077934;28;20504;-58
2024/03/14 13:02:05;;;;;;;2.42;2.05;;;;;;;;;;5077772;28;20044;-57
2024/03/14 13:04:38;;;;;;;4.10;1.83;;;;;;;;;;5078688;28;20440;-58
2024/03/14 13:07:11;;;;;;;2.63;1.90;;;;;;;;;;5077527;28;20071;-58
2024/03/14 13:09:37;;;;;;;2.97;1.90;;;;;;;;;;5078513;28;20056;-57
2024/03/14 13:12:05;;;;;;;3.40;2.10;;;;;;;;;;5077537;28;20060;-58
2024/03/14 13:14:32;;;;;;;3.05;2.10;;;;;;;;;;5077173;28;20172;-57
2024/03/14 13:17:04;;;;;;;3.50;1.98;;;;;;;;;;5076917;28;20092;-57
2024/03/14 13:19:32;;;;;;;4.55;1.92;;;;;;;;;;5077769;28;20444;-57
2024/03/14 13:21:59;;;;;;;3.10;1.70;;;;;;;;;;5077166;28;20048;-57
2024/03/14 13:24:26;;;;;;;3.97;2.05;;;;;;;;;;5077441;28;20056;-57
2024/03/14 13:26:53;;;;;;;2.42;1.52;;;;;;;;;;5077035;28;20067;-58
2024/03/14 13:29:22;;;;;;;4.70;1.90;;;;;;;;;;5077457;28;20063;-57
2024/03/14 13:31:49;;;;;;;2.97;1.83;;;;;;;;;;5077441;28;20052;-57
2024/03/14 13:34:17;;;;;;;2.95;1.92;;;;;;;;;;5077506;28;20052;-58
2024/03/14 13:36:46;;;;;;;2.78;2.08;;;;;;;;;;5077279;28;20055;-57
2024/03/14 13:39:14;;;;;;;3.60;2.15;;;;;;;;;;5077529;28;20497;-57
2024/03/14 13:41:42;;;;;;;2.92;1.88;;;;;;;;;;5077324;28;20059;-57
2024/03/14 13:44:10;;;;;;;2.72;1.90;;;;;;;;;;5077286;28;20401;-57
2024/03/14 13:46:41;;;;;;;3.03;1.90;;;;;;;;;;5075232;28;20063;-58
2024/03/14 13:49:09;;;;;;;3.63;2.05;;;;;;;;;;5057831;28;20056;-57
2024/03/14 13:51:36;;;;;;;2.67;2.00;;;;;;;;;;5056587;28;20057;-57
2024/03/14 13:54:03;;;;;;;2.75;2.00;;;;;;;;;;5055726;28;20056;-57
2024/03/14 13:56:29;;;;;;;3.83;2.03;;;;;;;;;;5056662;28;20056;-57
2024/03/14 13:58:57;;;;;;;3.55;1.55;;;;;;;;;;5056758;28;20049;-57
2024/03/14 14:01:24;;;;;;;3.08;1.95;;;;;;;;;;5056926;28;20052;-57
2024/03/14 14:03:54;;;;;;;2.97;1.80;;;;;;;;;;5056611;28;20072;-58
2024/03/14 14:06:22;;;;;;;2.65;1.65;;;;;;;;;;5056215;28;20052;-58
2024/03/14 14:08:49;;;;;;;2.90;1.80;;;;;;;;;;5056152;28;20413;-58
2024/03/14 14:11:16;;;;;;;3.13;1.77;;;;;;;;;;5056237;28;20048;-57
2024/03/14 14:13:45;;;;;;;3.28;1.80;;;;;;;;;;5056243;28;20064;-57
2024/03/14 14:16:12;;;;;;;2.92;1.70;;;;;;;;;;5056411;28;20057;-57
2024/03/14 14:18:39;;;;;;;3.20;1.60;;;;;;;;;;5056717;28;20044;-57
2024/03/14 14:21:06;;;;;;;3.88;1.70;;;;;;;;;;5055948;28;20055;-58
2024/03/14 14:23:35;;;;;;;2.65;1.75;;;;;;;;;;5056447;28;20426;-58
2024/03/14 14:26:02;;;;;;;6.07;1.52;;;;;;;;;;5056683;28;20048;-57
2024/03/14 14:28:29;;;;;;;3.88;1.52;;;;;;;;;;5056046;28;20051;-58
2024/03/14 14:30:56;;;;;;;3.20;1.35;;;;;;;;;;5055925;28;20053;-58
2024/03/14 14:33:23;;;;;;;3.63;1.83;;;;;;;;;;5056234;28;20486;-57
2024/03/14 14:35:50;;;;;;;3.50;1.60;;;;;;;;;;5055554;28;20053;-57
2024/03/14 14:38:18;;;;;;;3.58;2.00;;;;;;;;;;5055912;28;20052;-58
2024/03/14 14:40:45;;;;;;;5.43;1.92;;;;;;;;;;5055571;28;20075;-57
2024/03/14 14:43:12;;;;;;;5.15;1.90;;;;;;;;;;5056032;28;20063;-57
2024/03/14 14:45:39;;;;;;;3.65;1.70;;;;;;;;;;5055816;28;20060;-57